createdAt,value
2022-10-01T00:04:44.975Z,100659.69
2022-10-01T00:14:47.881Z,100679.72
2022-10-01T00:24:50.881Z,100684.63
2022-10-01T00:34:54.048Z,100688.53
2022-10-01T00:44:57.930Z,100675.19
2022-10-01T00:55:05.766Z,100670.75
2022-10-01T01:05:13.730Z,100680.84
2022-10-01T01:15:28.710Z,100678.97
2022-10-01T01:25:48.270Z,100641.03
2022-10-01T01:35:56.158Z,100624.88
2022-10-01T01:46:01.844Z,100600.13
2022-10-01T01:56:06.995Z,100568.16
2022-10-01T02:06:26.292Z,100596.75
2022-10-01T02:16:50.986Z,100583.09
2022-10-01T02:26:56.120Z,100582.97
2022-10-01T02:37:04.119Z,100593.81
2022-10-01T02:47:14.310Z,100597.88
2022-10-01T02:57:24.755Z,100569.91
2022-10-01T03:07:30.312Z,100568.94
2022-10-01T03:17:33.346Z,100564.25
2022-10-01T03:27:36.268Z,100575.16
2022-10-01T03:37:39.127Z,100704.47
2022-10-01T03:47:42.208Z,100676.22
2022-10-01T03:57:45.018Z,100655.97
2022-10-01T04:07:48.623Z,100650.72
2022-10-01T04:17:51.914Z,100649.03
2022-10-01T04:28:03.537Z,100684.22
2022-10-01T04:38:16.039Z,100698.31
2022-10-01T04:48:19.099Z,100712.44
2022-10-01T04:58:21.973Z,100683.28
2022-10-01T05:08:24.923Z,100704.06
2022-10-01T05:18:27.841Z,100660.69
2022-10-01T05:28:31.105Z,100658.13
2022-10-01T05:38:37.321Z,100659.44
2022-10-01T05:48:40.260Z,100639.63
2022-10-01T05:58:43.262Z,100664.13
2022-10-01T06:08:46.941Z,100682.31
2022-10-01T06:18:49.816Z,100651.56
2022-10-01T06:28:52.852Z,100631.97
2022-10-01T06:38:55.681Z,100598.03
2022-10-01T06:48:58.589Z,100588.47
2022-10-01T06:59:01.501Z,100607.97
2022-10-01T07:09:04.485Z,100624.47
2022-10-01T07:19:07.455Z,100610.88
2022-10-01T07:29:10.906Z,100630.25
2022-10-01T07:39:13.856Z,100624.03
2022-10-01T07:49:16.943Z,100608.78
2022-10-01T07:59:19.767Z,100608.31
2022-10-01T08:09:22.975Z,100610.75
2022-10-01T08:19:26.132Z,100616.47
2022-10-01T08:29:28.934Z,100625.84
2022-10-01T08:39:31.853Z,100594.19
2022-10-01T08:49:44.781Z,100593.03
2022-10-01T09:00:00.016Z,100570.91
2022-10-01T09:10:09.785Z,100583.59
2022-10-01T09:20:51.306Z,100554.91
2022-10-01T09:30:56.839Z,100571.88
2022-10-01T09:41:00.517Z,100545.03
2022-10-01T09:51:16.566Z,100537.22
2022-10-01T10:01:43.391Z,100551.03
2022-10-01T10:11:46.397Z,100541.50
2022-10-01T10:21:54.983Z,100510.28
2022-10-01T10:32:25.330Z,100505.66
2022-10-01T10:42:28.992Z,100502.13
2022-10-01T10:52:33.861Z,100502.63
2022-10-01T11:02:41.206Z,100486.59
2022-10-01T11:13:03.020Z,100462.50
2022-10-01T11:23:53.660Z,100451.94
2022-10-01T11:34:37.894Z,100425.62
2022-10-01T11:45:01.581Z,100402.66
2022-10-01T11:55:42.489Z,100389.59
2022-10-01T12:05:46.192Z,100368.38
2022-10-01T12:15:58.795Z,100368.81
2022-10-01T12:26:53.879Z,100361.03
2022-10-01T12:37:13.813Z,100347.44
2022-10-01T12:47:43.315Z,100344.16
2022-10-01T12:58:17.688Z,100314.91
2022-10-01T13:08:36.332Z,100305.06
2022-10-01T13:19:12.838Z,100302.72
2022-10-01T13:29:25.439Z,100286.09
2022-10-01T13:39:36.636Z,100263.25
2022-10-01T13:49:42.563Z,100259.66
2022-10-01T13:59:45.682Z,100245.13
2022-10-01T14:09:57.289Z,100229.16
2022-10-01T14:20:01.488Z,100200.72
2022-10-01T14:30:13.483Z,100198.47
2022-10-01T14:40:22.655Z,100193.03
2022-10-01T14:50:26.713Z,100172.81
2022-10-01T15:00:32.480Z,100156.53
2022-10-01T15:10:36.057Z,100147.72
2022-10-01T15:20:38.988Z,100134.34
2022-10-01T15:30:44.124Z,100136.97
2022-10-01T15:41:01.827Z,100137.66
2022-10-01T15:51:23.436Z,100103.44
2022-10-01T16:01:30.021Z,100075.66
2022-10-01T16:11:55.274Z,100066.00
2022-10-01T16:22:18.811Z,100048.38
2022-10-01T16:32:21.702Z,100044.50
2022-10-01T16:42:24.792Z,100030.19
2022-10-01T16:52:27.775Z,100022.44
2022-10-01T17:02:30.685Z,100023.34
2022-10-01T17:12:33.513Z,100012.94
2022-10-01T17:22:37.358Z,100000.66
2022-10-01T17:32:42.991Z,99994.78
2022-10-01T17:42:46.174Z,100013.09
2022-10-01T17:52:49.536Z,100017.47
2022-10-01T18:02:52.546Z,100021.59
2022-10-01T18:12:57.478Z,100023.66
2022-10-01T18:23:00.308Z,99977.59
2022-10-01T18:33:03.338Z,99965.66
2022-10-01T18:43:22.208Z,99980.59
2022-10-01T18:53:28.151Z,100025.00
2022-10-01T19:04:33.065Z,99998.31
2022-10-01T19:14:55.955Z,100002.87
2022-10-01T19:25:11.499Z,100008.81
2022-10-01T19:35:20.291Z,100014.31
2022-10-01T19:45:33.689Z,100031.09
2022-10-01T19:55:38.777Z,100031.72
2022-10-01T20:05:53.360Z,100008.62
2022-10-01T20:16:19.265Z,100013.22
2022-10-01T20:26:39.902Z,100023.25
2022-10-01T20:36:48.858Z,100024.56
2022-10-01T20:46:58.434Z,100008.78
2022-10-01T20:57:25.867Z,100025.12
2022-10-01T21:07:38.443Z,100035.94
2022-10-01T21:18:03.139Z,100040.72
2022-10-01T21:28:15.078Z,100068.44
2022-10-01T21:38:43.097Z,100079.44
2022-10-01T21:48:49.175Z,100078.09
2022-10-01T21:59:22.276Z,100073.06
2022-10-01T22:10:08.068Z,100066.06
2022-10-01T22:20:12.484Z,100084.22
2022-10-01T22:30:24.559Z,100068.69
2022-10-01T22:40:33.402Z,100080.81
2022-10-01T22:50:45.256Z,100101.16
2022-10-01T23:01:22.360Z,100094.34
2022-10-01T23:11:25.222Z,100086.97
2022-10-01T23:21:36.853Z,100117.84
2022-10-01T23:31:50.479Z,100138.06
2022-10-01T23:41:57.112Z,100154.19
2022-10-01T23:52:19.015Z,100179.56
